Time;durP1;ratioP1;P1;durP2;ratioP2;P2;SDS_P1;SDS_P2;PMS_P1;PMS_P2;Temp;Humidity;BMP_temperature;BMP_pressure;BME280_temperature;BME280_humidity;BME280_pressure;Samples;Min_cycle;Max_cycle;Signal;HPM_P1;HPM_P2
2024/01/10 00:01:17;;;;;;;3.90;3.60;;;14.30;56.30;15.00;102055.00;;;;5055251;28;20181;-47
2024/01/10 00:03:43;;;;;;;3.97;3.67;;;14.30;56.30;15.00;102052.00;;;;5051353;28;20193;-47
2024/01/10 00:06:10;;;;;;;3.83;3.53;;;14.20;56.20;14.90;102046.00;;;;5069497;28;20186;-47
2024/01/10 00:08:35;;;;;;;3.90;3.57;;;14.20;56.20;14.90;102057.00;;;;5069306;28;20251;-47
2024/01/10 00:11:01;;;;;;;3.87;3.50;;;14.20;56.20;14.90;102053.00;;;;5069310;28;20173;-47
2024/01/10 00:13:27;;;;;;;4.20;3.80;;;14.20;56.40;14.80;102044.00;;;;5069432;28;20247;-47
2024/01/10 00:15:53;;;;;;;3.83;3.53;;;14.10;56.20;14.80;102047.00;;;;5071533;28;20162;-47
2024/01/10 00:18:19;;;;;;;3.80;3.50;;;14.10;56.40;14.80;102049.00;;;;5070448;28;20558;-46
2024/01/10 00:20:44;;;;;;;3.80;3.50;;;14.10;56.50;14.70;102045.00;;;;5069217;28;20609;-46
2024/01/10 00:23:10;;;;;;;3.57;3.27;;;14.10;56.50;14.70;102053.00;;;;5069195;28;20256;-46
2024/01/10 00:25:36;;;;;;;3.70;3.40;;;14.00;56.50;14.70;102034.00;;;;5068833;28;20173;-46
2024/01/10 00:28:02;;;;;;;3.50;3.20;;;14.00;56.60;14.70;102032.00;;;;5068992;28;20739;-46
2024/01/10 00:30:28;;;;;;;3.90;3.60;;;14.00;56.50;14.60;102028.00;;;;5068499;28;20204;-47
2024/01/10 00:32:53;;;;;;;3.80;3.50;;;14.00;57.20;14.60;102026.00;;;;5069121;28;20202;-46
2024/01/10 00:35:19;;;;;;;3.73;3.43;;;13.90;56.60;14.60;102027.00;;;;5030785;28;20182;-47
2024/01/10 00:37:45;;;;;;;3.80;3.50;;;13.90;56.60;14.60;102033.00;;;;5068763;28;20181;-45
2024/01/10 00:40:11;;;;;;;3.80;3.50;;;13.90;56.70;14.60;102034.00;;;;5068442;28;20177;-46
2024/01/10 00:42:36;;;;;;;3.60;3.30;;;13.90;56.60;14.50;102027.00;;;;5068373;28;20254;-47
2024/01/10 00:45:02;;;;;;;3.80;3.50;;;13.80;56.60;14.50;102023.00;;;;5068988;28;20780;-47
2024/01/10 00:47:28;;;;;;;3.77;3.47;;;13.80;56.70;14.50;102021.00;;;;5068816;28;20201;-47
2024/01/10 00:49:55;;;;;;;3.37;3.13;;;13.80;56.60;14.50;102026.00;;;;5067801;28;20177;-46
2024/01/10 00:52:21;;;;;;;3.80;3.50;;;13.80;56.60;14.50;101949.00;;;;5044876;28;20560;-48
2024/01/10 00:54:46;;;;;;;3.77;3.47;;;13.80;56.60;14.50;102024.00;;;;5068309;28;20193;-47
2024/01/10 00:57:12;;;;;;;3.77;3.47;;;13.70;56.60;14.50;102023.00;;;;5047965;28;20349;-47
2024/01/10 00:59:38;;;;;;;3.53;3.23;;;13.80;56.60;14.50;102033.00;;;;5045027;28;20437;-47
2024/01/10 01:02:03;;;;;;;3.60;3.30;;;13.70;56.50;14.50;102028.00;;;;5071755;28;20254;-46
2024/01/10 01:04:29;;;;;;;3.43;3.13;;;13.70;56.50;14.40;102034.00;;;;5071587;28;20194;-47
2024/01/10 01:06:55;;;;;;;3.93;3.53;;;13.70;56.50;14.40;102040.00;;;;5071414;28;20173;-46
2024/01/10 01:09:21;;;;;;;3.73;3.43;;;13.70;56.50;14.40;102032.00;;;;5071468;28;20174;-46
2024/01/10 01:11:46;;;;;;;3.43;3.13;;;13.70;56.50;14.40;102034.00;;;;5071171;28;20189;-46
2024/01/10 01:14:12;;;;;;;3.60;3.30;;;13.60;56.40;14.40;102031.00;;;;5071393;28;20197;-46
2024/01/10 01:16:38;;;;;;;3.60;3.30;;;13.50;56.40;14.40;102027.00;;;;5070884;28;20166;-46
2024/01/10 01:19:03;;;;;;;3.60;3.30;;;13.60;56.40;14.40;102030.00;;;;5071424;28;20181;-46
2024/01/10 01:21:29;;;;;;;3.40;3.10;;;13.60;56.40;14.40;102029.00;;;;5070868;28;20185;-46
2024/01/10 01:23:55;;;;;;;3.67;3.37;;;13.60;56.40;14.40;102034.00;;;;5070871;28;20547;-46
2024/01/10 01:26:20;;;;;;;3.67;3.37;;;13.60;56.40;14.30;102020.00;;;;5070829;28;20804;-47
2024/01/10 01:28:46;;;;;;;3.80;3.50;;;13.60;56.40;14.30;102011.00;;;;5070800;28;20706;-46
2024/01/10 01:31:12;;;;;;;3.30;3.00;;;13.60;56.40;14.30;102008.00;;;;5049504;28;20181;-46
2024/01/10 01:33:39;;;;;;;3.30;3.00;;;13.60;56.40;14.30;102014.00;;;;5063869;28;20747;-48
2024/01/10 01:36:06;;;;;;;3.67;3.37;;;13.50;56.30;14.30;102020.00;;;;5070683;28;20257;-46
2024/01/10 01:38:31;;;;;;;3.90;3.60;;;13.50;56.20;14.30;102020.00;;;;5072508;28;20204;-47
2024/01/10 01:40:57;;;;;;;3.20;3.00;;;13.60;56.40;14.30;102019.00;;;;5073254;28;20190;-47
2024/01/10 01:43:24;;;;;;;3.50;3.20;;;13.50;56.30;14.30;102019.00;;;;5073829;28;20327;-46
2024/01/10 01:45:54;;;;;;;3.50;3.20;;;13.40;56.30;14.20;102008.00;;;;5070020;28;20235;-46
2024/01/10 01:48:20;;;;;;;3.60;3.30;;;13.50;56.40;14.00;102003.00;;;;5069923;28;20247;-46
2024/01/10 01:50:47;;;;;;;3.40;3.10;;;13.40;56.40;14.20;101997.00;;;;5073935;28;20166;-48
2024/01/10 01:53:15;;;;;;;3.60;3.30;;;13.40;56.50;14.20;102003.00;;;;5041717;28;20170;-48
2024/01/10 01:55:43;;;;;;;3.40;3.10;;;13.40;56.70;14.20;101995.00;;;;5076229;28;20556;-47
2024/01/10 01:58:08;;;;;;;3.60;3.30;;;13.40;56.60;14.20;101996.00;;;;5052957;28;20217;-47
2024/01/10 02:00:34;;;;;;;3.50;3.20;;;13.30;56.60;14.10;102000.00;;;;5067275;28;20770;-46
2024/01/10 02:03:00;;;;;;;3.17;2.97;;;13.40;56.60;14.20;101994.00;;;;5035776;28;20561;-47
2024/01/10 02:05:26;;;;;;;3.43;3.13;;;13.40;56.60;14.10;101991.00;;;;5060570;28;20244;-47
2024/01/10 02:07:52;;;;;;;3.50;3.20;;;13.30;56.60;14.10;101991.00;;;;5069184;28;20209;-47
2024/01/10 02:10:19;;;;;;;3.33;3.03;;;13.30;56.60;14.10;101996.00;;;;5070113;28;20173;-47
2024/01/10 02:12:45;;;;;;;3.60;3.30;;;13.30;56.60;14.10;101992.00;;;;5068821;28;20182;-46
2024/01/10 02:15:10;;;;;;;3.33;3.03;;;13.30;56.60;14.00;101997.00;;;;5068714;28;20682;-46
2024/01/10 02:17:36;;;;;;;3.50;3.20;;;13.30;56.60;14.00;101995.00;;;;5068514;28;20190;-46
2024/01/10 02:20:12;;;;;;;3.40;3.10;;;13.20;56.60;14.00;101988.00;;;;5067558;28;20178;-46
2024/01/10 02:22:38;;;;;;;3.57;3.27;;;13.30;56.70;14.00;101982.00;;;;5068771;28;20170;-47
2024/01/10 02:25:11;;;;;;;3.73;3.40;;;13.20;56.60;14.00;101972.00;;;;5070119;28;20208;-46
2024/01/10 02:27:37;;;;;;;3.33;3.03;;;13.20;56.70;13.70;101981.00;;;;5049551;28;20634;-46
2024/01/10 02:30:03;;;;;;;3.20;3.00;;;13.10;56.70;13.90;101986.00;;;;5069959;28;20202;-47
2024/01/10 02:32:29;;;;;;;3.40;3.10;;;13.20;56.80;13.90;101974.00;;;;5069541;28;20209;-46
2024/01/10 02:34:55;;;;;;;3.47;3.17;;;13.10;56.80;13.90;101971.00;;;;5069811;28;20217;-46
2024/01/10 02:37:20;;;;;;;3.30;3.00;;;13.10;56.80;13.90;101982.00;;;;5069853;28;20624;-47
2024/01/10 02:39:46;;;;;;;3.57;3.27;;;13.10;56.80;13.90;101986.00;;;;5069669;28;20179;-46
2024/01/10 02:42:12;;;;;;;3.23;3.03;;;13.10;56.90;13.90;101975.00;;;;5064756;28;20180;-46
2024/01/10 02:44:38;;;;;;;3.40;3.10;;;13.00;56.80;13.80;101963.00;;;;5069223;28;20212;-46
2024/01/10 02:47:04;;;;;;;3.17;2.90;;;13.00;56.90;13.80;101961.00;;;;5069411;28;20194;-46
2024/01/10 02:49:30;;;;;;;3.53;3.23;;;13.00;56.90;13.80;101970.00;;;;5069137;28;20673;-47
2024/01/10 02:51:56;;;;;;;3.47;3.20;;;13.00;56.80;13.80;101977.00;;;;5068802;28;20181;-46
2024/01/10 02:54:21;;;;;;;3.20;3.00;;;13.00;56.90;13.70;101982.00;;;;5024526;28;20213;-46
2024/01/10 02:56:47;;;;;;;3.40;3.10;;;12.90;56.90;13.70;101988.00;;;;5071720;28;20169;-47
2024/01/10 02:59:13;;;;;;;3.70;3.40;;;12.90;56.90;13.70;101974.00;;;;5069464;28;20595;-46
2024/01/10 03:01:38;;;;;;;3.20;3.00;;;12.90;57.00;13.70;101988.00;;;;5062638;28;20186;-47
2024/01/10 03:04:04;;;;;;;3.37;3.07;;;12.90;56.90;13.70;101975.00;;;;5069361;28;20213;-47
2024/01/10 03:06:30;;;;;;;3.60;3.30;;;12.90;56.90;13.70;101968.00;;;;5047014;28;20825;-46
2024/01/10 03:08:56;;;;;;;3.50;3.20;;;12.80;56.80;13.70;101984.00;;;;5016008;28;20225;-46
2024/01/10 03:11:22;;;;;;;3.50;3.20;;;12.80;56.80;13.60;101977.00;;;;5065467;28;20172;-46
2024/01/10 03:14:01;;;;;;;3.43;3.13;;;12.80;56.80;13.60;101980.00;;;;5070539;28;20223;-47
2024/01/10 03:16:26;;;;;;;3.60;3.30;;;12.80;56.90;13.40;101978.00;;;;5043721;28;20174;-46
2024/01/10 03:18:52;;;;;;;3.20;2.90;;;12.80;57.00;13.60;101975.00;;;;5063532;28;20258;-46
2024/01/10 03:21:24;;;;;;;3.03;2.83;;;12.80;57.10;13.60;101972.00;;;;5060402;28;20174;-46
2024/01/10 03:23:56;;;;;;;3.53;3.23;;;12.70;57.10;13.60;101977.00;;;;5063662;28;20205;-47
2024/01/10 03:26:26;;;;;;;3.30;3.00;;;12.70;57.10;13.50;101994.00;;;;5065958;28;20189;-47
2024/01/10 03:28:52;;;;;;;3.50;3.20;;;12.70;57.10;13.50;101951.00;;;;5063299;28;20201;-47
2024/01/10 03:31:17;;;;;;;3.40;3.10;;;12.70;57.10;13.50;101978.00;;;;5054275;28;20181;-47
2024/01/10 03:33:43;;;;;;;4.03;3.20;;;12.60;57.00;13.50;101978.00;;;;5076723;28;20277;-46
2024/01/10 03:36:12;;;;;;;3.40;3.10;;;12.60;57.00;13.40;101980.00;;;;5076201;28;20178;-46
2024/01/10 03:38:38;;;;;;;3.30;3.00;;;12.60;57.00;13.20;101976.00;;;;5069340;28;20250;-47
2024/01/10 03:41:04;;;;;;;3.30;3.00;;;12.60;57.00;13.40;101970.00;;;;5069475;28;20247;-46
2024/01/10 03:43:29;;;;;;;3.53;3.23;;;12.60;57.00;13.40;101962.00;;;;5056690;28;20263;-46
2024/01/10 03:45:55;;;;;;;3.30;3.00;;;12.60;57.00;13.40;101973.00;;;;5078910;28;20186;-47
2024/01/10 03:48:21;;;;;;;3.30;3.00;;;12.50;56.90;13.30;101971.00;;;;5069071;28;20193;-46
2024/01/10 03:50:46;;;;;;;3.50;3.20;;;12.50;57.00;13.30;101978.00;;;;5068381;28;20637;-46
2024/01/10 03:53:12;;;;;;;3.33;3.03;;;12.50;56.90;13.30;101977.00;;;;5068492;28;20178;-46
2024/01/10 03:55:39;;;;;;;3.10;2.90;;;12.50;57.00;13.30;101968.00;;;;5068488;28;20227;-51
2024/01/10 03:58:05;;;;;;;3.40;3.10;;;12.50;57.10;13.20;101961.00;;;;5071988;28;20189;-46
2024/01/10 04:00:30;;;;;;;3.57;3.27;;;12.40;57.00;13.20;101962.00;;;;5047367;28;20216;-46
2024/01/10 04:02:56;;;;;;;3.60;3.30;;;12.40;57.20;13.20;101974.00;;;;5069532;28;20303;-46
2024/01/10 04:05:24;;;;;;;3.07;2.80;;;12.40;57.00;13.20;101980.00;;;;5069276;28;20603;-46
2024/01/10 04:07:50;;;;;;;3.43;3.13;;;12.40;57.10;13.10;101971.00;;;;5068192;28;20295;-46
2024/01/10 04:10:15;;;;;;;3.30;3.00;;;12.40;57.10;13.10;101972.00;;;;5071449;28;20174;-47
2024/01/10 04:12:42;;;;;;;3.17;2.97;;;12.30;57.00;13.10;101970.00;;;;5069834;28;20197;-46
2024/01/10 04:15:08;;;;;;;3.33;3.10;;;12.30;57.10;13.10;101962.00;;;;5040172;28;20189;-46
2024/01/10 04:17:34;;;;;;;3.00;2.80;;;12.30;57.10;13.00;101965.00;;;;5067118;28;20177;-46
2024/01/10 04:19:59;;;;;;;3.33;3.03;;;12.30;57.10;13.00;101967.00;;;;5068694;28;20582;-46
2024/01/10 04:22:25;;;;;;;3.60;3.30;;;12.30;57.10;13.00;101964.00;;;;5068859;28;20185;-46
2024/01/10 04:24:51;;;;;;;3.23;2.93;;;12.30;57.10;13.00;101957.00;;;;5068892;28;20197;-46
2024/01/10 04:27:18;;;;;;;3.03;2.83;;;12.20;57.10;13.00;101949.00;;;;5068904;28;20190;-46
2024/01/10 04:29:44;;;;;;;3.30;3.00;;;12.20;57.10;13.00;101950.00;;;;5047721;28;22036;-46
2024/01/10 04:32:10;;;;;;;4.47;2.83;;;12.20;57.40;13.00;101953.00;;;;5062836;28;20231;-47
2024/01/10 04:34:35;;;;;;;3.87;3.07;;;12.20;57.40;13.00;101949.00;;;;5063403;28;20210;-46
2024/01/10 04:37:01;;;;;;;4.53;2.87;;;12.20;57.20;12.90;101948.00;;;;5069115;28;20181;-47
2024/01/10 04:39:27;;;;;;;4.00;3.10;;;12.20;57.30;12.90;101952.00;;;;5068777;28;20174;-45
2024/01/10 04:41:53;;;;;;;3.00;2.80;;;12.20;57.30;12.90;101954.00;;;;5069106;28;20646;-46
2024/01/10 04:44:18;;;;;;;3.27;2.97;;;12.10;57.20;12.90;101959.00;;;;5068704;28;20189;-46
2024/01/10 04:46:44;;;;;;;3.60;2.87;;;12.10;57.30;12.90;101959.00;;;;5068654;28;20658;-46
2024/01/10 04:49:10;;;;;;;3.63;3.33;;;12.10;57.30;12.80;101952.00;;;;5069601;28;20213;-47
2024/01/10 04:51:36;;;;;;;3.20;2.80;;;12.00;57.20;12.80;101961.00;;;;5049740;28;20177;-46
2024/01/10 04:54:01;;;;;;;3.50;3.20;;;12.00;57.20;12.80;101959.00;;;;5072263;28;20301;-46
2024/01/10 04:56:27;;;;;;;3.13;2.87;;;12.00;57.10;12.80;101965.00;;;;5066291;28;20185;-46
2024/01/10 04:58:53;;;;;;;3.07;2.87;;;12.00;57.10;12.80;101970.00;;;;5070275;28;20177;-45
2024/01/10 05:01:18;;;;;;;3.33;3.03;;;12.00;57.20;12.70;101958.00;;;;5047584;28;20215;-45
2024/01/10 05:03:44;;;;;;;3.40;3.10;;;12.00;57.10;12.70;101958.00;;;;5041813;28;20205;-46
2024/01/10 05:06:10;;;;;;;3.40;3.10;;;11.90;57.10;12.70;101966.00;;;;5063350;28;20185;-46
2024/01/10 05:08:36;;;;;;;3.30;3.00;;;11.90;57.10;12.70;101947.00;;;;5061545;28;20670;-46
2024/01/10 05:11:02;;;;;;;3.40;3.10;;;11.90;57.10;12.70;101959.00;;;;5051815;28;20197;-47
2024/01/10 05:13:28;;;;;;;5.50;3.27;;;11.90;57.10;12.60;101963.00;;;;5066142;28;20610;-46
2024/01/10 05:15:54;;;;;;;3.40;3.10;;;11.90;57.30;12.60;101966.00;;;;5063251;28;20178;-46
2024/01/10 05:18:21;;;;;;;3.40;3.10;;;11.90;57.30;12.60;101971.00;;;;5039571;28;20178;-47
2024/01/10 05:20:46;;;;;;;3.30;3.00;;;11.80;57.30;12.60;101969.00;;;;5036868;28;20246;-46
2024/01/10 05:23:12;;;;;;;5.50;3.17;;;11.80;57.20;12.60;101966.00;;;;5070394;28;20189;-46
2024/01/10 05:25:38;;;;;;;4.03;3.30;;;11.80;57.40;12.50;101964.00;;;;5083001;28;20222;-46
2024/01/10 05:28:04;;;;;;;4.63;3.20;;;11.80;57.30;12.50;101978.00;;;;5065696;28;20205;-47
2024/01/10 05:30:30;;;;;;;3.63;3.30;;;11.80;57.60;12.50;101974.00;;;;5069021;28;20177;-46
2024/01/10 05:32:56;;;;;;;5.03;3.20;;;11.80;57.60;12.40;101965.00;;;;5074727;28;20389;-46
2024/01/10 05:35:22;;;;;;;5.70;3.00;;;11.80;57.70;12.50;101966.00;;;;5066676;28;20202;-46
2024/01/10 05:37:47;;;;;;;3.50;3.20;;;11.80;57.70;12.50;101971.00;;;;5065003;28;20177;-46
2024/01/10 05:40:13;;;;;;;3.63;3.00;;;11.90;57.80;12.50;101966.00;;;;5068805;28;20185;-45
2024/01/10 05:42:39;;;;;;;3.87;2.90;;;12.00;57.80;12.60;101969.00;;;;5066924;28;20188;-45
2024/01/10 05:45:05;;;;;;;4.33;2.87;;;12.10;57.70;12.60;101972.00;;;;5048206;28;20228;-45
2024/01/10 05:47:31;;;;;;;4.97;3.30;;;12.20;57.60;12.70;101959.00;;;;5071494;28;20201;-46
2024/01/10 05:49:57;;;;;;;3.63;3.33;;;12.30;57.50;12.80;101950.00;;;;5071537;28;20209;-46
2024/01/10 05:52:23;;;;;;;4.03;2.97;;;12.40;57.30;12.90;101952.00;;;;5071630;28;20177;-45
2024/01/10 05:54:48;;;;;;;3.60;3.30;;;12.60;57.20;13.00;101963.00;;;;5065364;28;20225;-45
2024/01/10 05:57:17;;;;;;;3.00;2.80;;;12.60;57.00;13.10;101952.00;;;;5071123;28;20571;-46
2024/01/10 05:59:43;;;;;;;3.30;3.00;;;12.80;57.00;13.20;101944.00;;;;5070803;28;20268;-46
2024/01/10 06:02:08;;;;;;;3.47;3.17;;;13.00;57.50;13.30;101954.00;;;;5071415;28;20185;-47
2024/01/10 06:04:34;;;;;;;3.73;3.00;;;13.10;56.60;13.40;101949.00;;;;5070510;28;20294;-45
2024/01/10 06:07:00;;;;;;;3.23;2.93;;;13.20;56.50;13.50;101955.00;;;;5069794;28;20712;-48
2024/01/10 06:09:26;;;;;;;3.37;3.07;;;13.40;56.40;13.60;101943.00;;;;5069614;28;20599;-48
2024/01/10 06:11:52;;;;;;;4.50;3.27;;;13.50;56.30;13.80;101936.00;;;;5071144;28;20244;-46
2024/01/10 06:14:17;;;;;;;3.27;2.97;;;13.60;56.10;13.80;101939.00;;;;5070637;28;20709;-49
2024/01/10 06:16:44;;;;;;;3.53;3.23;;;13.70;56.00;13.90;101937.00;;;;5048447;28;20555;-46
2024/01/10 06:19:11;;;;;;;3.40;3.10;;;13.80;55.90;14.10;101938.00;;;;5071299;28;20212;-46
2024/01/10 06:21:37;;;;;;;3.53;3.10;;;13.90;56.00;14.10;101933.00;;;;5064908;28;20173;-47
2024/01/10 06:24:03;;;;;;;3.33;3.03;;;14.00;56.00;14.20;101930.00;;;;5064561;28;20216;-46
2024/01/10 06:26:29;;;;;;;3.53;3.23;;;14.10;55.90;14.30;101941.00;;;;5070490;28;20715;-47
2024/01/10 06:28:55;;;;;;;3.30;3.00;;;14.10;55.70;14.40;101945.00;;;;5070810;28;20318;-47
2024/01/10 06:31:21;;;;;;;3.77;3.17;;;14.20;55.90;14.40;101917.00;;;;5072923;28;20319;-47
2024/01/10 06:33:47;;;;;;;3.50;3.20;;;14.20;55.80;14.50;101939.00;;;;5054071;28;20224;-46
2024/01/10 06:36:13;;;;;;;3.97;3.27;;;14.30;55.80;14.60;101943.00;;;;5070732;28;20181;-47
2024/01/10 06:38:39;;;;;;;3.90;3.50;;;14.40;55.80;14.70;101936.00;;;;5070730;28;20178;-47
2024/01/10 06:41:13;;;;;;;3.40;3.10;;;14.50;55.80;14.70;101935.00;;;;5070777;28;20635;-46
2024/01/10 06:43:40;;;;;;;3.37;3.07;;;14.50;55.80;14.80;101938.00;;;;5070270;28;20292;-47
2024/01/10 06:46:06;;;;;;;2.90;2.70;;;14.60;55.80;14.90;101925.00;;;;5064860;28;20201;-47
2024/01/10 06:48:32;;;;;;;3.20;2.97;;;14.60;55.70;14.90;101943.00;;;;5058702;28;20200;-47
2024/01/10 06:50:59;;;;;;;3.20;2.93;;;14.70;55.70;15.00;101928.00;;;;5068615;28;20185;-47
2024/01/10 06:53:24;;;;;;;3.50;3.20;;;14.70;55.60;15.00;101921.00;;;;5048381;28;20670;-47
2024/01/10 06:55:50;;;;;;;3.57;3.27;;;14.80;55.70;15.10;101926.00;;;;5070794;28;20188;-47
2024/01/10 06:58:16;;;;;;;3.60;3.30;;;14.80;55.60;15.10;101924.00;;;;5075103;28;20177;-47
2024/01/10 07:00:42;;;;;;;3.47;3.17;;;14.90;55.60;15.20;101917.00;;;;5069416;28;20260;-47
2024/01/10 07:03:07;;;;;;;3.30;2.90;;;15.00;55.60;15.20;101924.00;;;;5070602;28;20185;-47
2024/01/10 07:05:33;;;;;;;3.20;2.90;;;15.00;55.60;15.30;101926.00;;;;5069078;28;20692;-47
2024/01/10 07:08:02;;;;;;;3.20;2.90;;;15.00;55.50;15.30;101914.00;;;;5065841;28;20286;-46
2024/01/10 07:10:29;;;;;;;3.00;2.80;;;15.10;55.60;15.40;101923.00;;;;5068506;28;20185;-47
2024/01/10 07:12:55;;;;;;;3.33;3.03;;;15.20;55.60;15.40;101921.00;;;;5061073;28;20173;-47
2024/01/10 07:15:21;;;;;;;3.07;2.80;;;15.20;55.40;15.50;101926.00;;;;5067963;28;20632;-46
2024/01/10 07:17:47;;;;;;;3.00;2.80;;;15.20;55.50;15.50;101918.00;;;;5059605;28;20189;-47
2024/01/10 07:20:13;;;;;;;3.37;3.07;;;15.20;55.60;15.50;101922.00;;;;5077173;28;20772;-48
2024/01/10 07:22:43;;;;;;;3.10;2.90;;;15.20;55.70;15.50;101928.00;;;;5072016;28;20181;-48
2024/01/10 07:25:13;;;;;;;3.43;3.13;;;15.10;55.80;15.50;101928.00;;;;5052927;28;20203;-47
2024/01/10 07:27:42;;;;;;;3.13;2.93;;;15.10;55.90;15.50;101936.00;;;;5070605;28;20699;-47
2024/01/10 07:30:13;;;;;;;3.00;2.80;;;15.00;55.90;15.50;101930.00;;;;5073335;28;20185;-52
2024/01/10 07:32:41;;;;;;;3.30;3.00;;;15.10;56.00;15.50;101938.00;;;;5084371;28;20182;-56
2024/01/10 07:35:10;;;;;;;3.17;2.87;;;15.10;56.00;15.60;101940.00;;;;5069607;28;20281;-48
2024/01/10 07:37:40;;;;;;;3.00;2.80;;;15.10;56.10;15.60;101939.00;;;;5069977;28;20184;-47
2024/01/10 07:40:08;;;;;;;3.30;3.00;;;15.20;56.20;15.60;101936.00;;;;5069837;28;20250;-47
2024/01/10 07:42:34;;;;;;;3.43;3.13;;;15.20;56.20;15.70;101925.00;;;;5069624;28;20185;-50
2024/01/10 07:45:00;;;;;;;3.40;3.10;;;15.30;56.20;15.70;101944.00;;;;5068719;28;20299;-47
2024/01/10 07:47:26;;;;;;;3.40;3.10;;;15.40;56.80;15.70;101945.00;;;;5042936;28;20233;-48
2024/01/10 07:49:52;;;;;;;3.50;3.20;;;15.50;57.10;15.80;101946.00;;;;5069104;28;20242;-47
2024/01/10 07:52:17;;;;;;;3.47;3.10;;;15.50;57.30;15.90;101945.00;;;;5063401;28;20217;-47
2024/01/10 07:54:43;;;;;;;5.80;3.30;;;15.50;57.30;15.90;101945.00;;;;5067554;28;20205;-48
2024/01/10 07:57:09;;;;;;;3.40;3.10;;;15.60;57.40;15.90;101953.00;;;;5068814;28;20235;-47
2024/01/10 07:59:34;;;;;;;3.47;3.17;;;15.60;57.60;16.00;101939.00;;;;5066881;28;20573;-48
2024/01/10 08:02:00;;;;;;;3.33;3.03;;;15.60;57.60;16.00;101943.00;;;;5068367;28;20201;-48
2024/01/10 08:04:26;;;;;;;3.90;3.20;;;15.60;57.70;16.00;101948.00;;;;5060369;28;20204;-47
2024/01/10 08:06:53;;;;;;;3.40;3.10;;;15.60;57.70;16.00;101962.00;;;;5069884;28;20177;-47
2024/01/10 08:09:19;;;;;;;4.13;2.97;;;15.60;57.80;16.00;101948.00;;;;5071425;28;20685;-48
2024/01/10 08:11:45;;;;;;;4.50;2.90;;;15.60;57.80;16.10;101961.00;;;;5070432;28;20181;-48
2024/01/10 08:14:12;;;;;;;3.73;3.20;;;15.60;57.60;16.10;101951.00;;;;5068768;28;20264;-47
2024/01/10 08:16:37;;;;;;;3.27;2.97;;;15.70;57.60;16.10;101962.00;;;;5068291;28;20223;-47
2024/01/10 08:19:03;;;;;;;3.50;3.20;;;15.70;57.50;16.10;101957.00;;;;5041283;28;20217;-47
2024/01/10 08:21:29;;;;;;;3.90;3.20;;;15.70;57.50;16.20;101957.00;;;;5067691;28;20319;-48
2024/01/10 08:23:54;;;;;;;5.13;3.33;;;15.70;57.40;16.20;101967.00;;;;5070464;28;20681;-48
2024/01/10 08:26:20;;;;;;;3.90;2.83;;;15.80;57.50;16.20;101960.00;;;;5068056;28;20200;-48
2024/01/10 08:28:46;;;;;;;4.40;3.17;;;15.80;57.40;16.20;101965.00;;;;5060970;28;20668;-48
2024/01/10 08:31:12;;;;;;;5.33;3.07;;;15.80;57.50;16.30;101976.00;;;;5064105;28;20189;-47
2024/01/10 08:33:39;;;;;;;3.50;3.20;;;15.90;57.90;16.30;101970.00;;;;5053538;28;20198;-48
2024/01/10 08:36:05;;;;;;;3.53;3.23;;;15.90;58.20;16.30;101983.00;;;;5062378;28;20185;-47
2024/01/10 08:38:31;;;;;;;3.40;3.10;;;15.90;58.30;16.30;101969.00;;;;5067316;28;20585;-47
2024/01/10 08:40:56;;;;;;;4.20;3.30;;;15.90;58.30;16.30;101984.00;;;;5067148;28;20186;-48
2024/01/10 08:43:22;;;;;;;4.67;3.50;;;15.70;59.00;16.30;101969.00;;;;5062418;28;20213;-47
2024/01/10 08:45:48;;;;;;;4.43;3.30;;;15.80;59.70;16.30;101983.00;;;;5053337;28;20216;-48
2024/01/10 08:48:14;;;;;;;5.10;3.30;;;15.80;59.20;16.30;101973.00;;;;5057705;28;20241;-49
2024/01/10 08:50:41;;;;;;;7.30;3.50;;;15.80;59.30;16.30;101970.00;;;;5062132;28;20193;-47
2024/01/10 08:53:07;;;;;;;4.73;3.37;;;15.80;59.40;16.30;101979.00;;;;5068631;28;20548;-47
2024/01/10 08:55:34;;;;;;;8.30;3.87;;;15.80;59.20;16.30;101976.00;;;;5067510;28;20213;-46
2024/01/10 08:57:59;;;;;;;5.73;3.97;;;15.80;59.50;16.30;101980.00;;;;5056907;28;20642;-47
2024/01/10 09:00:25;;;;;;;6.90;3.83;;;15.70;59.10;16.30;101978.00;;;;5064919;28;20204;-47
2024/01/10 09:02:52;;;;;;;4.23;3.60;;;15.70;59.10;16.30;101971.00;;;;5039980;28;20185;-48
2024/01/10 09:05:18;;;;;;;4.33;3.60;;;15.70;58.90;16.30;101970.00;;;;5055134;28;20201;-47
2024/01/10 09:07:44;;;;;;;8.90;4.20;;;15.70;59.00;16.00;101977.00;;;;5067871;28;20201;-47
2024/01/10 09:10:09;;;;;;;17.10;4.63;;;15.70;59.50;16.20;101976.00;;;;5045566;28;20255;-46
2024/01/10 09:12:35;;;;;;;12.47;4.00;;;15.70;60.10;16.30;101974.00;;;;5078547;28;20178;-48
2024/01/10 09:15:02;;;;;;;7.43;4.07;;;15.80;59.80;16.30;101968.00;;;;5061758;28;20213;-47
2024/01/10 09:17:28;;;;;;;10.07;4.30;;;15.80;59.90;16.30;101980.00;;;;5070049;28;20209;-47
2024/01/10 09:19:54;;;;;;;11.77;4.60;;;15.70;59.50;16.30;101984.00;;;;5072860;28;20205;-48
2024/01/10 09:22:19;;;;;;;7.73;4.80;;;15.70;58.80;16.30;101977.00;;;;5065626;28;20651;-46
2024/01/10 09:24:45;;;;;;;9.90;5.33;;;15.70;58.20;16.30;101990.00;;;;5073073;28;20201;-47
2024/01/10 09:27:11;;;;;;;6.30;5.00;;;15.70;57.50;16.30;101985.00;;;;5079358;28;20196;-48
2024/01/10 09:29:37;;;;;;;11.47;5.33;;;15.80;57.10;16.30;101982.00;;;;5073398;28;20649;-47
2024/01/10 09:32:03;;;;;;;9.50;5.50;;;15.80;56.60;16.30;101991.00;;;;5047680;28;20173;-47
2024/01/10 09:34:29;;;;;;;7.53;5.27;;;15.80;56.70;16.30;101994.00;;;;5059701;28;20199;-47
2024/01/10 09:36:55;;;;;;;10.03;5.30;;;15.90;57.70;16.40;101994.00;;;;5064832;28;20189;-47
2024/01/10 09:39:20;;;;;;;9.10;5.37;;;16.00;57.20;16.40;101998.00;;;;5065850;28;20611;-47
2024/01/10 09:41:50;;;;;;;6.90;5.23;;;16.00;57.10;16.40;102002.00;;;;5069153;28;20959;-48
2024/01/10 09:44:17;;;;;;;9.23;5.03;;;15.90;57.20;16.40;102005.00;;;;5065703;28;20202;-48
2024/01/10 09:46:46;;;;;;;10.37;5.10;;;15.90;57.50;16.50;101985.00;;;;5070505;28;20729;-47
2024/01/10 09:49:12;;;;;;;13.13;5.35;;;16.00;57.70;16.60;101996.00;;;;5016749;28;20474;-47
2024/01/10 09:51:38;;;;;;;6.60;4.50;;;16.00;57.70;16.60;102000.00;;;;5051831;28;20669;-47
2024/01/10 09:54:06;;;;;;;9.33;4.87;;;16.10;57.70;16.60;101998.00;;;;5081712;28;20191;-47
2024/01/10 09:56:32;;;;;;;7.00;4.83;;;16.00;57.60;16.60;102001.00;;;;5068541;28;20669;-47
2024/01/10 09:59:02;;;;;;;7.70;4.70;;;16.00;57.60;16.60;102009.00;;;;5071920;28;20204;-48
2024/01/10 10:01:27;;;;;;;9.20;4.80;;;16.00;57.60;16.60;102007.00;;;;5071233;28;20265;-47
2024/01/10 10:03:53;;;;;;;5.90;4.73;;;16.00;57.60;16.60;102008.00;;;;5038129;28;20198;-47
2024/01/10 10:06:20;;;;;;;10.77;4.43;;;16.00;57.70;16.60;102006.00;;;;5050512;28;20186;-47
2024/01/10 10:08:46;;;;;;;5.77;4.57;;;16.00;57.60;16.60;102004.00;;;;5069435;28;20509;-47
2024/01/10 10:11:14;;;;;;;6.40;4.50;;;16.10;57.60;16.60;102008.00;;;;5065821;28;20185;-47
2024/01/10 10:13:41;;;;;;;6.63;4.20;;;16.10;57.60;16.60;102006.00;;;;5071278;28;20191;-47
2024/01/10 10:16:09;;;;;;;5.80;4.50;;;16.10;57.70;16.60;102007.00;;;;5071402;28;20190;-47
2024/01/10 10:18:35;;;;;;;8.30;4.40;;;16.00;57.70;16.70;102009.00;;;;5064098;28;20178;-47
2024/01/10 10:21:14;;;;;;;6.13;4.57;;;16.10;57.70;16.70;102006.00;;;;5053302;28;20712;-47
2024/01/10 10:23:57;;;;;;;4.63;4.13;;;16.10;57.60;16.70;101997.00;;;;5072854;28;20260;-48
2024/01/10 10:26:23;;;;;;;6.60;4.37;;;16.10;57.70;16.70;101993.00;;;;5074381;28;20282;-48
2024/01/10 10:28:50;;;;;;;5.53;4.57;;;16.10;57.70;16.70;101992.00;;;;5070779;28;20712;-47
2024/01/10 10:31:16;;;;;;;6.50;4.43;;;16.10;57.70;16.70;101996.00;;;;5066776;28;20176;-47
2024/01/10 10:33:43;;;;;;;4.20;3.80;;;16.20;57.90;16.70;101997.00;;;;5069741;28;20205;-47
2024/01/10 10:36:09;;;;;;;5.00;3.97;;;16.20;57.80;16.80;102004.00;;;;5078312;28;20183;-48
2024/01/10 10:38:37;;;;;;;4.50;4.10;;;16.20;57.80;16.80;102011.00;;;;5080889;28;20272;-47
2024/01/10 10:41:05;;;;;;;4.10;3.70;;;16.20;57.70;16.80;102002.00;;;;5064557;28;20204;-47
2024/01/10 10:43:33;;;;;;;6.43;4.43;;;16.20;57.90;16.80;102007.00;;;;5046057;28;20477;-47